Time;durP1;ratioP1;P1;durP2;ratioP2;P2;SDS_P1;SDS_P2;PMS_P1;PMS_P2;Temp;Humidity;BMP_temperature;BMP_pressure;BME280_temperature;BME280_humidity;BME280_pressure;Samples;Min_cycle;Max_cycle;Signal;HPM_P1;HPM_P2
2022/04/22 00:01:29;;;;;;;16.20;8.60;;;;;;;;;;5025343;28;20422;-64
2022/04/22 00:03:55;;;;;;;16.27;9.43;;;;;;;;;;5032116;28;20525;-63
2022/04/22 00:06:21;;;;;;;14.05;8.45;;;;;;;;;;5032136;28;20501;-63
2022/04/22 00:08:47;;;;;;;14.65;8.90;;;;;;;;;;5032299;28;20427;-63
2022/04/22 00:11:29;;;;;;;13.98;8.73;;;;;;;;;;5035369;28;20542;-63
2022/04/22 00:13:55;;;;;;;13.50;8.68;;;;;;;;;;5035077;28;20423;-63
2022/04/22 00:16:22;;;;;;;14.80;8.90;;;;;;;;;;5027602;28;20440;-63
2022/04/22 00:18:48;;;;;;;13.27;8.82;;;;;;;;;;5028660;28;20490;-64
2022/04/22 00:21:14;;;;;;;16.60;8.98;;;;;;;;;;5029968;28;20438;-63
2022/04/22 00:23:40;;;;;;;15.13;9.90;;;;;;;;;;5031408;28;20426;-64
2022/04/22 00:26:06;;;;;;;13.73;8.95;;;;;;;;;;5031124;28;20457;-63
2022/04/22 00:28:33;;;;;;;16.02;9.27;;;;;;;;;;5029638;28;20415;-63
2022/04/22 00:30:59;;;;;;;17.52;9.35;;;;;;;;;;5033093;28;20459;-63
2022/04/22 00:33:25;;;;;;;16.40;9.50;;;;;;;;;;5031784;28;20557;-64
2022/04/22 00:35:51;;;;;;;17.40;9.40;;;;;;;;;;5027992;28;20416;-63
2022/04/22 00:38:16;;;;;;;12.90;8.90;;;10.20;99.90;;;;;;5025400;28;20421;-63
2022/04/22 00:40:43;;;;;;;16.80;9.60;;;;;;;;;;5028995;28;20431;-63
2022/04/22 00:43:19;;;;;;;18.23;9.50;;;;;;;;;;5029795;28;20416;-63
2022/04/22 00:45:45;;;;;;;16.58;9.52;;;;;;;;;;5031574;28;20553;-63
2022/04/22 00:48:12;;;;;;;15.27;9.70;;;;;;;;;;5032814;28;20474;-63
2022/04/22 00:50:39;;;;;;;17.15;10.15;;;10.10;99.90;;;;;;5008349;28;20499;-63
2022/04/22 00:53:06;;;;;;;15.23;10.00;;;10.00;99.90;;;;;;5028235;28;20440;-63
2022/04/22 00:55:32;;;;;;;17.30;10.07;;;9.90;99.90;;;;;;5035762;28;20415;-64
2022/04/22 00:58:02;;;;;;;15.57;9.52;;;;;;;;;;5029362;28;20435;-63
2022/04/22 01:00:28;;;;;;;16.77;9.52;;;;;;;;;;5036596;28;20462;-64
2022/04/22 01:02:54;;;;;;;17.58;10.27;;;;;;;;;;5034836;28;20932;-63
2022/04/22 01:10:51;;;;;;;16.38;9.52;;;;;;;;;;5031648;28;20426;-63
2022/04/22 01:13:17;;;;;;;15.05;9.77;;;;;;;;;;5028131;28;20419;-64
2022/04/22 01:15:44;;;;;;;17.00;9.45;;;;;;;;;;5036756;28;20498;-63
2022/04/22 01:18:10;;;;;;;16.50;9.57;;;;;;;;;;5028343;28;20421;-63
2022/04/22 01:20:36;;;;;;;19.02;9.75;;;;;;;;;;5030059;28;20438;-63
2022/04/22 01:23:02;;;;;;;17.60;9.63;;;;;;;;;;5030935;28;20435;-63
2022/04/22 01:25:29;;;;;;;15.25;9.35;;;;;;;;;;5028167;28;20425;-63
2022/04/22 01:27:56;;;;;;;16.15;9.90;;;;;;;;;;5029014;28;21379;-63
2022/04/22 01:30:22;;;;;;;17.53;10.30;;;;;;;;;;5028408;28;20502;-64
2022/04/22 01:32:50;;;;;;;19.13;10.27;;;;;;;;;;5028524;28;20559;-63
2022/04/22 01:35:17;;;;;;;15.75;10.60;;;;;;;;;;5029845;28;20435;-63
2022/04/22 01:37:43;;;;;;;18.63;10.75;;;9.80;99.90;;;;;;5029877;28;20415;-63
2022/04/22 01:40:10;;;;;;;18.85;10.23;;;;;;;;;;5030538;28;20431;-63
2022/04/22 01:42:36;;;;;;;16.83;10.10;;;;;;;;;;5035269;28;20426;-62
2022/04/22 01:45:02;;;;;;;16.77;10.00;;;;;;;;;;5027974;28;20434;-63
2022/04/22 01:47:29;;;;;;;17.10;10.02;;;;;;;;;;5034263;28;20463;-64
2022/04/22 01:49:55;;;;;;;14.38;9.70;;;;;;;;;;5029172;28;20421;-63
2022/04/22 01:52:22;;;;;;;17.70;10.13;;;;;;;;;;5036552;28;20453;-63
2022/04/22 01:54:52;;;;;;;15.05;9.88;;;;;;;;;;5030801;28;20427;-63
2022/04/22 01:57:18;;;;;;;17.83;10.45;;;;;;;;;;5034844;28;20413;-63
2022/04/22 01:59:46;;;;;;;15.20;9.87;;;;;;;;;;5034556;28;20431;-63
2022/04/22 02:02:13;;;;;;;17.98;10.35;;;9.60;99.90;;;;;;5034739;28;20450;-63
2022/04/22 02:04:39;;;;;;;18.15;9.85;;;;;;;;;;5034051;28;20417;-63
2022/04/22 02:07:06;;;;;;;17.73;9.20;;;;;;;;;;5024318;28;20423;-63
2022/04/22 02:09:32;;;;;;;16.67;9.10;;;9.40;99.90;;;;;;5036379;28;20425;-63
2022/04/22 02:11:58;;;;;;;17.02;9.10;;;;;;;;;;5027728;28;20443;-62
2022/04/22 02:14:25;;;;;;;16.15;9.10;;;;;;;;;;5031747;28;20431;-64
2022/04/22 02:16:51;;;;;;;16.50;9.52;;;9.30;99.90;;;;;;5030857;28;20425;-63
2022/04/22 02:19:18;;;;;;;17.80;9.18;;;;;;;;;;5031602;28;20424;-64
2022/04/22 02:21:44;;;;;;;15.53;8.87;;;;;;;;;;5037340;28;20457;-63
2022/04/22 02:24:10;;;;;;;19.30;9.15;;;;;;;;;;5026245;28;20425;-63
2022/04/22 02:29:22;;;;;;;13.20;8.55;;;9.10;99.90;;;;;;5036398;28;20469;-62
2022/04/22 02:31:48;;;;;;;13.85;9.30;;;;;;;;;;5032071;28;20767;-63
2022/04/22 02:34:14;;;;;;;13.82;8.43;;;;;;;;;;5032697;28;20804;-63
2022/04/22 02:36:43;;;;;;;15.63;9.13;;;;;;;;;;5027566;28;20607;-63
2022/04/22 02:39:10;;;;;;;13.85;8.35;;;;;;;;;;5026795;28;20424;-64
2022/04/22 02:47:05;;;;;;;16.65;9.13;;;;;;;;;;5035603;28;20417;-63
2022/04/22 02:49:32;;;;;;;14.25;8.73;;;;;;;;;;5030571;28;20477;-63
2022/04/22 02:51:58;;;;;;;18.10;8.70;;;;;;;;;;5034212;28;20465;-63
2022/04/22 02:54:24;;;;;;;13.15;8.82;;;;;;;;;;5029718;28;20477;-63
2022/04/22 02:56:53;;;;;;;14.57;8.60;;;;;;;;;;5018249;28;20507;-63
2022/04/22 02:59:19;;;;;;;13.23;8.07;;;8.90;99.90;;;;;;5025123;28;20420;-63
2022/04/22 03:01:45;;;;;;;14.38;8.40;;;;;;;;;;5026799;28;21034;-63
2022/04/22 03:04:12;;;;;;;13.75;8.10;;;;;;;;;;5030668;28;20467;-63
2022/04/22 03:06:38;;;;;;;12.48;8.10;;;;;;;;;;5032811;28;20423;-63
2022/04/22 03:09:04;;;;;;;14.18;8.02;;;8.70;99.90;;;;;;5026342;28;20434;-63
2022/04/22 03:11:31;;;;;;;12.57;7.63;;;;;;;;;;5026777;28;20770;-63
2022/04/22 03:13:57;;;;;;;12.30;8.00;;;;;;;;;;5050826;28;20426;-63
2022/04/22 03:16:25;;;;;;;12.70;7.73;;;8.50;99.90;;;;;;5027333;28;20639;-62
2022/04/22 03:18:51;;;;;;;12.20;7.95;;;;;;;;;;5036129;28;20427;-63
2022/04/22 03:21:17;;;;;;;12.47;8.20;;;;;;;;;;5029642;28;20611;-64
2022/04/22 03:23:43;;;;;;;11.30;7.57;;;8.60;99.90;;;;;;5032226;28;20939;-63
2022/04/22 03:26:09;;;;;;;13.23;7.80;;;;;;;;;;5028401;28;20417;-63
2022/04/22 03:28:35;;;;;;;13.43;7.75;;;;;;;;;;5028137;28;20457;-63
2022/04/22 03:31:01;;;;;;;11.25;7.35;;;;;;;;;;5030756;28;20423;-63
2022/04/22 03:33:27;;;;;;;13.77;7.53;;;8.30;99.90;;;;;;5024995;28;20421;-63
2022/04/22 03:35:53;;;;;;;12.10;7.40;;;8.40;99.90;;;;;;5026909;28;20425;-63
2022/04/22 03:38:20;;;;;;;12.43;7.30;;;8.30;99.90;;;;;;5020148;28;20434;-63
2022/04/22 03:40:49;;;;;;;12.95;7.65;;;;;;;;;;5034321;28;20441;-63
2022/04/22 03:43:16;;;;;;;11.25;7.07;;;;;;;;;;5036675;28;20453;-64
2022/04/22 03:45:42;;;;;;;11.02;6.85;;;;;;;;;;5029582;28;20835;-63
2022/04/22 03:48:09;;;;;;;9.65;6.65;;;;;;;;;;5030720;28;20445;-63
2022/04/22 03:50:36;;;;;;;13.63;7.15;;;8.20;99.90;;;;;;5028409;28;20427;-63
2022/04/22 03:53:05;;;;;;;9.50;6.57;;;;;;;;;;5030679;28;20921;-63
2022/04/22 03:55:31;;;;;;;12.90;7.00;;;8.10;99.90;;;;;;5033365;28;20794;-62
2022/04/22 03:58:12;;;;;;;11.07;7.03;;;8.10;99.90;;;;;;5031134;28;20505;-63
2022/04/22 04:00:51;;;;;;;11.60;7.25;;;;;;;;;;5028997;28;20462;-63
2022/04/22 04:03:18;;;;;;;12.23;7.00;;;;;;;;;;5024888;28;20423;-62
2022/04/22 04:05:49;;;;;;;12.73;7.70;;;;;;;;;;5032531;28;20965;-64
2022/04/22 04:08:16;;;;;;;11.43;7.20;;;;;;;;;;5024979;28;20478;-62
2022/04/22 04:16:12;;;;;;;11.13;7.07;;;;;;;;;;5029915;28;20419;-63
2022/04/22 04:18:39;;;;;;;12.02;7.10;;;;;;;;;;5027266;28;20912;-63
2022/04/22 04:23:51;;;;;;;12.83;6.93;;;;;;;;;;5026478;28;20427;-63
2022/04/22 04:26:17;;;;;;;10.55;6.70;;;;;;;;;;5028052;28;20423;-64
2022/04/22 04:28:44;;;;;;;12.77;6.88;;;;;;;;;;5024831;28;20584;-64
2022/04/22 04:31:11;;;;;;;9.80;6.60;;;;;;;;;;5028646;28;20428;-64
2022/04/22 04:33:38;;;;;;;10.50;6.50;;;;;;;;;;5030568;28;20419;-64
2022/04/22 04:36:05;;;;;;;12.85;6.55;;;;;;;;;;5032666;28;20447;-64
2022/04/22 04:38:32;;;;;;;12.05;7.25;;;;;;;;;;5030866;28;20439;-63
2022/04/22 04:40:58;;;;;;;10.25;6.28;;;;;;;;;;5033245;28;20436;-64
2022/04/22 04:43:24;;;;;;;12.73;6.38;;;7.80;99.90;;;;;;5037167;28;20422;-63
2022/04/22 04:45:50;;;;;;;11.95;6.43;;;;;;;;;;5029654;28;20421;-64
2022/04/22 04:48:17;;;;;;;10.20;6.80;;;;;;;;;;5036134;28;20429;-63
2022/04/22 04:50:43;;;;;;;12.50;6.47;;;7.90;99.90;;;;;;5034923;28;20498;-64
2022/04/22 04:53:10;;;;;;;11.32;6.43;;;;;;;;;;5034893;28;21031;-64
2022/04/22 04:55:36;;;;;;;11.95;6.88;;;;;;;;;;5038624;28;20429;-63
2022/04/22 04:58:02;;;;;;;11.23;6.40;;;;;;;;;;5040895;28;20821;-64
2022/04/22 05:00:29;;;;;;;10.27;6.60;;;;;;;;;;5033716;28;20435;-64
2022/04/22 05:02:55;;;;;;;10.20;6.70;;;;;;;;;;5025778;28;20453;-63
2022/04/22 05:05:21;;;;;;;14.32;6.70;;;;;;;;;;5029828;28;20995;-64
2022/04/22 05:07:56;;;;;;;13.03;6.43;;;8.00;99.90;;;;;;5031870;28;20458;-64
2022/04/22 05:10:22;;;;;;;8.95;6.20;;;;;;;;;;5029067;28;20539;-64
2022/04/22 05:12:49;;;;;;;12.98;6.55;;;;;;;;;;5028409;28;20423;-64
2022/04/22 05:15:17;;;;;;;10.82;6.55;;;8.00;99.90;;;;;;5035443;28;20437;-63
2022/04/22 05:17:43;;;;;;;11.02;6.47;;;;;;;;;;5033765;28;20427;-63
2022/04/22 05:20:11;;;;;;;10.45;5.90;;;;;;;;;;5032326;28;20432;-63
2022/04/22 05:22:37;;;;;;;10.63;6.43;;;;;;;;;;5034009;28;20435;-64
2022/04/22 05:25:04;;;;;;;12.07;6.97;;;;;;;;;;5034559;28;20426;-63
2022/04/22 05:27:31;;;;;;;10.70;6.15;;;;;;;;;;5032793;28;20422;-64
2022/04/22 05:32:47;;;;;;;9.10;6.30;;;;;;;;;;5027838;28;20471;-64
2022/04/22 05:35:13;;;;;;;9.32;5.88;;;;;;;;;;5037753;28;20407;-64
2022/04/22 05:37:43;;;;;;;10.83;5.73;;;8.30;99.90;;;;;;5029251;28;20427;-63
2022/04/22 05:40:10;;;;;;;10.68;6.05;;;;;;;;;;5031258;28;20435;-64
2022/04/22 05:42:39;;;;;;;11.95;5.90;;;;;;;;;;5029671;28;20455;-64
2022/04/22 05:45:06;;;;;;;10.20;5.87;;;;;;;;;;5036632;28;20930;-63
2022/04/22 05:47:32;;;;;;;9.37;5.47;;;;;;;;;;5028913;28;20439;-63
2022/04/22 05:49:58;;;;;;;11.75;6.20;;;;;;;;;;5033207;28;20423;-64
2022/04/22 05:52:24;;;;;;;9.57;5.67;;;;;;;;;;5024452;28;20499;-64
2022/04/22 05:54:51;;;;;;;8.85;5.40;;;;;;;;;;5035709;28;20415;-64
2022/04/22 05:57:17;;;;;;;9.50;4.97;;;;;;;;;;5031602;28;20486;-64
2022/04/22 05:59:43;;;;;;;8.65;5.32;;;8.90;99.90;;;;;;5025522;28;20437;-63
2022/04/22 06:02:09;;;;;;;8.55;5.03;;;;;;;;;;5030354;28;20461;-63
2022/04/22 06:04:35;;;;;;;9.48;5.55;;;;;;;;;;5028311;28;20429;-64
2022/04/22 06:07:01;;;;;;;8.70;5.00;;;;;;;;;;5026853;28;20998;-64
2022/04/22 06:12:13;;;;;;;9.00;4.43;;;9.30;99.90;;;;;;5031006;28;20422;-63
2022/04/22 06:14:39;;;;;;;7.95;4.68;;;;;;;;;;5029436;28;20477;-64
2022/04/22 06:17:06;;;;;;;7.13;4.30;;;;;;;;;;5032053;28;20884;-64
2022/04/22 06:19:32;;;;;;;7.63;4.68;;;;;;;;;;5028197;28;20446;-64
2022/04/22 06:21:58;;;;;;;6.63;4.38;;;;;;;;;;5032680;28;20436;-64
2022/04/22 06:24:24;;;;;;;10.95;5.07;;;;;;;;;;5033001;28;20437;-64
2022/04/22 06:26:50;;;;;;;7.55;4.00;;;;;;;;;;5034768;28;20429;-64
2022/04/22 06:29:16;;;;;;;8.57;4.10;;;;;;;;;;5028508;28;20723;-63
2022/04/22 06:31:42;;;;;;;7.07;4.10;;;;;;;;;;5030628;28;20956;-64
2022/04/22 06:34:09;;;;;;;11.98;4.03;;;;;;;;;;5035879;28;20453;-63
2022/04/22 06:36:35;;;;;;;7.40;3.88;;;;;;;;;;5028149;28;20446;-63
2022/04/22 06:39:01;;;;;;;5.60;3.80;;;;;;;;;;5036518;28;20461;-65
2022/04/22 06:46:58;;;;;;;5.40;3.70;;;;;;;;;;5029420;28;20427;-64
2022/04/22 06:49:24;;;;;;;6.90;3.78;;;;;;;;;;5030854;28;20422;-65
2022/04/22 06:51:53;;;;;;;6.05;3.70;;;;;;;;;;5030476;28;20506;-64
2022/04/22 06:54:19;;;;;;;5.20;3.30;;;;;;;;;;5025909;28;20443;-65
2022/04/22 06:56:48;;;;;;;6.80;3.67;;;;;;;;;;5037515;28;20431;-64
2022/04/22 06:59:19;;;;;;;7.63;3.60;;;;;;;;;;5026453;28;20424;-64
2022/04/22 07:01:45;;;;;;;5.77;3.27;;;;;;;;;;5033097;28;20431;-66
2022/04/22 07:04:12;;;;;;;6.23;3.30;;;;;;;;;;5026599;28;20423;-64
2022/04/22 07:06:38;;;;;;;6.75;3.42;;;;;;;;;;5019552;28;20466;-64
2022/04/22 07:09:04;;;;;;;7.72;3.53;;;;;;;;;;5022794;28;20427;-63
2022/04/22 07:11:31;;;;;;;6.00;3.20;;;;;;;;;;5030208;28;20922;-64
2022/04/22 07:13:58;;;;;;;10.27;3.03;;;;;;;;;;5037675;28;20415;-64
2022/04/22 07:16:24;;;;;;;6.67;2.90;;;;;;;;;;5028962;28;20434;-63
2022/04/22 07:18:54;;;;;;;5.57;2.95;;;11.00;99.90;;;;;;5021073;28;20502;-64
2022/04/22 07:21:20;;;;;;;5.47;3.00;;;;;;;;;;5022777;28;20440;-64
2022/04/22 07:23:47;;;;;;;6.10;3.05;;;;;;;;;;5025707;28;21213;-64
2022/04/22 07:26:13;;;;;;;7.50;3.20;;;;;;;;;;5018576;28;20747;-64
2022/04/22 07:28:39;;;;;;;6.32;2.92;;;11.50;99.90;;;;;;5021219;28;20419;-64
2022/04/22 07:31:05;;;;;;;10.45;3.03;;;;;;;;;;5027710;28;20427;-64
2022/04/22 07:33:32;;;;;;;6.25;2.70;;;;;;;;;;5014777;28;20443;-63
2022/04/22 07:35:58;;;;;;;6.28;3.08;;;11.40;99.90;;;;;;5010621;28;21357;-64
2022/04/22 07:38:24;;;;;;;6.05;3.15;;;;;;;;;;5019037;28;20425;-63
2022/04/22 07:40:51;;;;;;;6.05;3.00;;;;;;;;;;5017567;28;20435;-64
2022/04/22 07:48:47;;;;;;;7.85;3.05;;;;;;;;;;5016625;28;20980;-63
2022/04/22 07:51:15;;;;;;;6.90;3.20;;;;;;;;;;5023993;28;20425;-63
2022/04/22 07:53:42;;;;;;;5.57;2.90;;;;;;;;;;5025070;28;20763;-64
2022/04/22 07:56:08;;;;;;;6.68;3.10;;;;;;;;;;5035363;28;20415;-63
2022/04/22 07:58:34;;;;;;;4.65;3.08;;;;;;;;;;5025720;28;20407;-64
2022/04/22 08:01:00;;;;;;;4.45;2.78;;;;;;;;;;5032140;28;20540;-64
2022/04/22 08:03:26;;;;;;;6.18;3.10;;;12.30;99.90;;;;;;5027466;28;20524;-63
2022/04/22 08:05:52;;;;;;;6.57;3.00;;;;;;;;;;5014554;28;20429;-63
2022/04/22 08:08:18;;;;;;;6.45;3.00;;;;;;;;;;5018734;28;20728;-64
2022/04/22 08:10:45;;;;;;;7.30;3.00;;;;;;;;;;5026525;28;20424;-64
2022/04/22 08:13:11;;;;;;;6.57;2.95;;;;;;;;;;5028479;28;20431;-65
2022/04/22 08:15:37;;;;;;;5.10;3.07;;;;;;;;;;5023236;28;21000;-65
2022/04/22 08:18:04;;;;;;;10.55;3.25;;;;;;;;;;5020364;28;20439;-64
2022/04/22 08:20:35;;;;;;;5.63;2.95;;;;;;;;;;5022025;28;20518;-63
2022/04/22 08:23:01;;;;;;;4.63;2.85;;;;;;;;;;5024926;28;20446;-64
2022/04/22 08:25:27;;;;;;;7.90;3.05;;;13.80;99.90;;;;;;5015880;28;20435;-65
2022/04/22 08:27:54;;;;;;;9.43;3.20;;;;;;;;;;5012669;28;20774;-64
2022/04/22 08:30:20;;;;;;;5.80;3.13;;;13.50;99.90;;;;;;5024035;28;20438;-63
2022/04/22 08:32:46;;;;;;;5.97;3.20;;;;;;;;;;5020404;28;20486;-62
2022/04/22 08:35:12;;;;;;;7.25;3.10;;;;;;;;;;5016339;28;20466;-62
2022/04/22 08:37:38;;;;;;;5.05;3.00;;;;;;;;;;5010521;28;20517;-63
2022/04/22 08:40:07;;;;;;;7.72;2.70;;;;;;;;;;5028049;28;20433;-63
2022/04/22 08:42:38;;;;;;;5.30;3.00;;;;;;;;;;5022966;28;20424;-62
2022/04/22 08:45:04;;;;;;;5.57;3.00;;;;;;;;;;5019294;28;20474;-63
2022/04/22 08:50:16;;;;;;;7.20;3.03;;;;;;;;;;5012502;28;20426;-62
2022/04/22 08:52:43;;;;;;;6.03;2.75;;;;;;;;;;5019354;28;20432;-63
2022/04/22 08:55:12;;;;;;;5.03;2.63;;;14.10;99.90;;;;;;5019232;28;20436;-63
2022/04/22 08:57:40;;;;;;;7.75;2.75;;;;;;;;;;5032686;28;20427;-63
2022/04/22 09:00:07;;;;;;;5.63;2.60;;;;;;;;;;5026050;28;20435;-63
2022/04/22 09:02:33;;;;;;;8.52;2.90;;;;;;;;;;5024801;28;20431;-64
2022/04/22 09:05:00;;;;;;;5.93;3.00;;;;;;;;;;5018814;28;20432;-63
2022/04/22 09:07:30;;;;;;;5.20;2.58;;;;;;;;;;5028730;28;20419;-63
2022/04/22 09:09:56;;;;;;;4.95;2.70;;;;;;;;;;5028281;28;20443;-63
2022/04/22 09:12:24;;;;;;;9.13;3.33;;;;;;;;;;5024438;28;20431;-63
2022/04/22 09:14:54;;;;;;;8.35;3.35;;;15.10;99.90;;;;;;5034241;28;20430;-64
2022/04/22 09:17:26;;;;;;;6.25;2.70;;;;;;;;;;5033563;28;20518;-64
2022/04/22 09:19:53;;;;;;;5.95;2.88;;;;;;;;;;5021044;28;20746;-63
2022/04/22 09:22:23;;;;;;;4.80;2.60;;;;;;;;;;5037903;28;20423;-63
2022/04/22 09:24:53;;;;;;;6.15;2.70;;;;;;;;;;5025017;28;20430;-64
2022/04/22 09:27:29;;;;;;;4.82;2.83;;;15.20;99.90;;;;;;5028193;28;20433;-63
2022/04/22 09:29:56;;;;;;;4.80;2.63;;;;;;;;;;5039065;28;20790;-63
2022/04/22 09:32:29;;;;;;;5.53;2.90;;;;;;;;;;5031275;28;20475;-63
2022/04/22 09:34:57;;;;;;;11.07;3.10;;;;;;;;;;5035814;28;20423;-63
2022/04/22 09:42:54;;;;;;;5.95;2.60;;;16.20;99.90;;;;;;5024974;28;20423;-62
2022/04/22 09:45:20;;;;;;;6.93;2.80;;;;;;;;;;5031539;28;20433;-63
2022/04/22 09:47:57;;;;;;;5.72;2.88;;;;;;;;;;5038799;28;20429;-63
2022/04/22 09:50:39;;;;;;;5.03;2.92;;;16.10;99.90;;;;;;5019985;28;20428;-63
2022/04/22 09:53:06;;;;;;;5.03;2.50;;;;;;;;;;5032080;28;20423;-63
2022/04/22 09:55:35;;;;;;;6.05;2.75;;;;;;;;;;5033665;28;20443;-62
2022/04/22 09:58:02;;;;;;;5.63;2.83;;;;;;;;;;5029243;28;20419;-63
2022/04/22 10:00:30;;;;;;;5.40;2.90;;;;;;;;;;5029652;28;20434;-63
2022/04/22 10:02:56;;;;;;;7.63;2.90;;;;;;;;;;5014127;28;20448;-63
2022/04/22 10:05:26;;;;;;;6.17;2.80;;;;;;;;;;5006076;28;21141;-64
2022/04/22 10:07:53;;;;;;;6.38;3.03;;;;;;;;;;5001765;28;21057;-63
2022/04/22 10:10:23;;;;;;;8.65;3.20;;;;;;;;;;4999172;28;20440;-62
2022/04/22 10:12:49;;;;;;;7.28;2.70;;;;;;;;;;5009665;28;20440;-63
2022/04/22 10:15:20;;;;;;;8.20;3.42;;;;;;;;;;5008592;28;20456;-63
2022/04/22 10:17:48;;;;;;;6.78;3.20;;;;;;;;;;5005701;28;20962;-63
2022/04/22 10:20:15;;;;;;;6.13;3.00;;;;;;;;;;5009055;28;20518;-63
2022/04/22 10:22:41;;;;;;;6.13;2.90;;;;;;;;;;5025866;28;20421;-63
2022/04/22 10:25:09;;;;;;;7.03;2.97;;;;;;;;;;5009581;28;20432;-62
2022/04/22 10:27:39;;;;;;;8.07;3.20;;;;;;;;;;5007804;28;20428;-63
2022/04/22 10:30:07;;;;;;;5.47;3.35;;;;;;;;;;5017775;28;20437;-63
2022/04/22 10:32:33;;;;;;;7.18;3.47;;;;;;;;;;5018612;28;20431;-63
2022/04/22 10:35:00;;;;;;;6.97;3.47;;;;;;;;;;5024603;28;20419;-63
2022/04/22 10:37:27;;;;;;;6.25;3.38;;;;;;;;;;5020062;28;20498;-63
2022/04/22 10:39:56;;;;;;;5.75;3.10;;;;;;;;;;5028102;28;20431;-63
2022/04/22 10:42:33;;;;;;;8.45;3.10;;;;;;;;;;5035566;28;20533;-62
2022/04/22 10:48:26;;;;;;;6.82;3.35;;;;;;;;;;5008656;28;20468;-63
2022/04/22 10:51:02;;;;;;;6.35;3.28;;;17.20;99.90;;;;;;5023963;28;20497;-62
2022/04/22 10:53:29;;;;;;;7.15;3.30;;;;;;;;;;5022793;28;20859;-63
2022/04/22 10:56:14;;;;;;;7.07;3.20;;;;;;;;;;5027349;28;20422;-63
2022/04/22 10:58:40;;;;;;;9.67;3.90;;;;;;;;;;5023400;28;20461;-63
2022/04/22 11:01:06;;;;;;;5.90;3.20;;;;;;;;;;5012059;28;20459;-63
2022/04/22 11:03:36;;;;;;;7.65;3.38;;;16.80;99.90;;;;;;5031326;28;20462;-63
2022/04/22 11:06:03;;;;;;;6.68;3.20;;;;;;;;;;5017416;28;20452;-64
2022/04/22 11:08:35;;;;;;;5.97;3.55;;;;;;;;;;5017515;28;20429;-62
2022/04/22 11:11:03;;;;;;;8.37;3.40;;;;;;;;;;5015837;28;20451;-63
2022/04/22 11:13:38;;;;;;;5.68;3.65;;;;;;;;;;5019536;28;20502;-63
2022/04/22 11:16:32;;;;;;;5.50;3.40;;;17.40;99.90;;;;;;5019417;28;20996;-63
2022/04/22 11:19:17;;;;;;;8.70;3.50;;;;;;;;;;5019262;28;20435;-63
2022/04/22 11:21:44;;;;;;;5.88;3.70;;;;;;;;;;5022353;28;20472;-63
2022/04/22 11:24:14;;;;;;;6.32;3.53;;;;;;;;;;5019861;28;20415;-63
2022/04/22 11:26:40;;;;;;;7.47;3.72;;;;;;;;;;5028256;28;20426;-63
2022/04/22 11:29:07;;;;;;;6.40;3.67;;;;;;;;;;5032747;28;20423;-64
2022/04/22 11:31:34;;;;;;;9.02;4.07;;;;;;;;;;5028609;28;20441;-63
2022/04/22 11:34:05;;;;;;;6.45;3.75;;;;;;;;;;5023774;28;20809;-63
2022/04/22 11:36:31;;;;;;;6.78;3.80;;;;;;;;;;5012135;28;20472;-64
2022/04/22 11:38:57;;;;;;;9.35;3.90;;;;;;;;;;5024961;28;20435;-64
2022/04/22 11:41:23;;;;;;;7.72;3.92;;;;;;;;;;5033057;28;20438;-63
2022/04/22 11:43:49;;;;;;;8.38;4.13;;;;;;;;;;5022435;28;20985;-64
2022/04/22 11:46:17;;;;;;;7.50;4.07;;;17.10;99.90;;;;;;5025491;28;20415;-64
2022/04/22 11:48:53;;;;;;;7.22;4.15;;;;;;;;;;5026653;28;20490;-63
2022/04/22 11:51:20;;;;;;;7.35;4.10;;;;;;;;;;5023490;28;20433;-64
2022/04/22 11:53:47;;;;;;;7.60;4.45;;;;;;;;;;5006649;28;20447;-64
2022/04/22 11:56:16;;;;;;;8.23;3.97;;;;;;;;;;5027029;28;21181;-64
2022/04/22 11:58:42;;;;;;;8.07;4.43;;;;;;;;;;5014901;28;20432;-63
2022/04/22 12:06:42;;;;;;;10.32;4.35;;;;;;;;;;5008406;28;20567;-64
2022/04/22 12:09:08;;;;;;;6.90;4.50;;;;;;;;;;5017907;28;20896;-63
2022/04/22 12:11:44;;;;;;;6.70;4.07;;;18.30;99.90;;;;;;5008399;28;20711;-64
2022/04/22 12:14:21;;;;;;;7.25;4.20;;;;;;;;;;5017559;28;20465;-64
2022/04/22 12:16:54;;;;;;;6.22;3.95;;;;;;;;;;5018479;28;20432;-64
2022/04/22 12:19:20;;;;;;;7.47;3.85;;;;;;;;;;5010323;28;20834;-64
2022/04/22 12:21:46;;;;;;;7.03;4.28;;;;;;;;;;5022604;28;20571;-67
2022/04/22 12:24:15;;;;;;;7.05;4.00;;;;;;;;;;5026520;28;20863;-65
2022/04/22 12:26:42;;;;;;;5.80;4.20;;;;;;;;;;5025636;28;20571;-65
2022/04/22 12:29:12;;;;;;;7.90;4.70;;;;;;;;;;5019297;28;20536;-65
2022/04/22 12:31:42;;;;;;;6.30;4.03;;;;;;;;;;5019815;28;20435;-65
2022/04/22 12:34:09;;;;;;;6.53;4.32;;;;;;;;;;5015471;28;20420;-65
2022/04/22 12:36:40;;;;;;;8.55;4.20;;;;;;;;;;5013386;28;20445;-65
2022/04/22 12:39:08;;;;;;;6.68;4.32;;;;;;;;;;5035407;28;20433;-65
2022/04/22 12:41:47;;;;;;;8.63;4.43;;;18.10;99.90;;;;;;5024578;28;20950;-65
2022/04/22 12:44:13;;;;;;;7.80;4.40;;;;;;;;;;5021064;28;20438;-65
2022/04/22 12:52:14;;;;;;;10.50;5.10;;;;;;;;;;5036016;28;20422;-65
2022/04/22 12:54:42;;;;;;;13.38;5.22;;;;;;;;;;5027662;28;20435;-65
2022/04/22 12:57:31;;;;;;;7.93;4.77;;;18.50;99.90;;;;;;5033856;28;21212;-65
2022/04/22 12:59:57;;;;;;;7.43;4.55;;;19.10;99.90;;;;;;5023633;28;20431;-65
2022/04/22 13:02:30;;;;;;;6.85;4.47;;;;;;;;;;5032229;28;20435;-66
2022/04/22 13:05:01;;;;;;;8.00;4.97;;;19.20;99.90;;;;;;5023808;28;20431;-65
2022/04/22 13:07:47;;;;;;;12.00;5.22;;;18.80;99.90;;;;;;5037836;28;20502;-63
2022/04/22 13:10:14;;;;;;;8.32;4.65;;;;;;;;;;5022205;28;20442;-65
2022/04/22 13:12:41;;;;;;;5.93;4.68;;;;;;;;;;5022568;28;20450;-64
2022/04/22 13:15:07;;;;;;;6.85;4.85;;;;;;;;;;5036352;28;20458;-65
2022/04/22 13:17:38;;;;;;;9.23;4.80;;;;;;;;;;5035184;28;20869;-65
2022/04/22 13:20:04;;;;;;;12.40;5.20;;;;;;;;;;5030392;28;20447;-65
2022/04/22 13:22:30;;;;;;;11.88;5.25;;;;;;;;;;5031828;28;20426;-65
2022/04/22 13:24:56;;;;;;;7.63;5.10;;;;;;;;;;5028777;28;20920;-64
2022/04/22 13:27:22;;;;;;;8.63;5.45;;;;;;;;;;5028515;28;20913;-64
2022/04/22 13:29:48;;;;;;;8.52;5.00;;;;;;;;;;5036294;28;20427;-64
2022/04/22 13:32:15;;;;;;;9.80;5.55;;;;;;;;;;5032186;28;21227;-64
2022/04/22 13:34:41;;;;;;;10.57;5.72;;;;;;;;;;5033294;28;20422;-64
2022/04/22 13:37:07;;;;;;;10.32;5.55;;;;;;;;;;5035331;28;21128;-64
2022/04/22 13:39:35;;;;;;;11.85;5.78;;;;;;;;;;5034810;28;20436;-65
2022/04/22 13:42:01;;;;;;;8.85;5.50;;;17.90;99.90;;;;;;5033161;28;20419;-63
2022/04/22 13:52:42;;;;;;;9.50;6.05;;;;;;;;;;5038293;28;20435;-64
2022/04/22 13:55:09;;;;;;;11.07;5.88;;;;;;;;;;5016566;28;20424;-64
2022/04/22 13:57:35;;;;;;;10.27;5.88;;;;;;;;;;5035059;28;20689;-65
2022/04/22 14:00:01;;;;;;;10.68;6.50;;;;;;;;;;5021953;28;20443;-64
2022/04/22 14:02:27;;;;;;;10.68;5.55;;;;;;;;;;5006422;28;20436;-63
2022/04/22 14:04:54;;;;;;;10.87;5.80;;;;;;;;;;5029067;28;20427;-63
2022/04/22 14:07:20;;;;;;;13.32;6.43;;;;;;;;;;5034408;28;20801;-64
2022/04/22 14:09:46;;;;;;;9.05;5.75;;;;;;;;;;4999498;28;21203;-64
2022/04/22 14:12:12;;;;;;;10.32;5.90;;;18.30;99.90;;;;;;5025058;28;20590;-63
2022/04/22 14:14:38;;;;;;;8.52;5.63;;;;;;;;;;5019339;28;20944;-64
2022/04/22 14:17:05;;;;;;;9.43;5.90;;;;;;;;;;5026966;28;20427;-63
2022/04/22 14:19:31;;;;;;;8.50;6.35;;;;;;;;;;5012329;28;20495;-64
2022/04/22 14:21:57;;;;;;;10.45;5.75;;;;;;;;;;5013622;28;20423;-64
2022/04/22 14:24:24;;;;;;;10.48;5.60;;;;;;;;;;5025339;28;20440;-63
2022/04/22 14:26:52;;;;;;;11.20;5.80;;;;;;;;;;5020050;28;20442;-64
2022/04/22 14:29:18;;;;;;;11.77;5.75;;;;;;;;;;5018661;28;20436;-64
2022/04/22 14:31:44;;;;;;;12.98;5.80;;;;;;;;;;5026552;28;20888;-64
2022/04/22 14:34:10;;;;;;;10.85;5.97;;;;;;;;;;5028172;28;20427;-64
2022/04/22 14:36:36;;;;;;;8.55;5.85;;;;;;;;;;5012896;28;20423;-64
2022/04/22 14:39:02;;;;;;;9.50;5.80;;;;;;;;;;5016108;28;20492;-64
2022/04/22 14:41:28;;;;;;;9.52;5.57;;;;;;;;;;5020633;28;20421;-64
2022/04/22 14:43:54;;;;;;;8.38;5.70;;;18.50;99.90;;;;;;5030595;28;20463;-64
2022/04/22 14:46:21;;;;;;;8.43;5.55;;;;;;;;;;5026364;28;20428;-64
2022/04/22 14:48:47;;;;;;;7.93;5.43;;;;;;;;;;5016894;28;20468;-63
2022/04/22 14:51:14;;;;;;;8.38;5.72;;;;;;;;;;5020827;28;20494;-64
2022/04/22 14:53:40;;;;;;;8.77;5.40;;;;;;;;;;5023685;28;20447;-64
2022/04/22 14:56:06;;;;;;;11.13;5.57;;;;;;;;;;5020903;28;21089;-64
2022/04/22 14:58:32;;;;;;;22.70;6.43;;;;;;;;;;4991889;28;20524;-64
2022/04/22 15:00:58;;;;;;;10.30;5.72;;;;;;;;;;5020191;28;20548;-65
2022/04/22 15:03:24;;;;;;;9.77;5.22;;;;;;;;;;5020001;28;20419;-64
2022/04/22 15:05:51;;;;;;;9.30;5.03;;;;;;;;;;5008421;28;20444;-64
2022/04/22 15:08:18;;;;;;;9.30;5.43;;;;;;;;;;5019588;28;20430;-64
2022/04/22 15:10:44;;;;;;;10.93;5.30;;;;;;;;;;5020199;28;20906;-64
2022/04/22 15:13:10;;;;;;;10.23;5.53;;;;;;;;;;5024439;28;21263;-63
2022/04/22 15:15:40;;;;;;;10.63;5.63;;;;;;;;;;5014350;28;20670;-64
2022/04/22 15:26:20;;;;;;;7.93;5.03;;;;;;;;;;5015779;28;20456;-66
2022/04/22 15:28:47;;;;;;;9.77;5.17;;;;;;;;;;5020412;28;20431;-65
2022/04/22 15:31:13;;;;;;;12.82;4.68;;;;;;;;;;5019752;28;20479;-64
2022/04/22 15:33:41;;;;;;;9.77;5.53;;;;;;;;;;5014309;28;20415;-63
2022/04/22 15:36:08;;;;;;;10.38;5.30;;;;;;;;;;5015672;28;20427;-64
2022/04/22 15:38:34;;;;;;;8.70;5.00;;;;;;;;;;5025239;28;20415;-64